sensor_id;sensor_type;location;lat;lon;timestamp;P1;durP1;ratioP1;P2;durP2;ratioP2
45322;SDS011;31382;50.200;8.674;2022-09-09T00:00:25;1.80;;;0.30;;
45322;SDS011;31382;50.200;8.674;2022-09-09T00:05:29;1.35;;;0.28;;
45322;SDS011;31382;50.200;8.674;2022-09-09T00:10:37;0.98;;;0.20;;
45322;SDS011;31382;50.200;8.674;2022-09-09T00:20:53;2.28;;;0.30;;
45322;SDS011;31382;50.200;8.674;2022-09-09T00:26:16;3.05;;;0.38;;
45322;SDS011;31382;50.200;8.674;2022-09-09T00:31:26;2.92;;;0.20;;
45322;SDS011;31382;50.200;8.674;2022-09-09T00:36:29;2.25;;;0.30;;
45322;SDS011;31382;50.200;8.674;2022-09-09T00:41:44;0.93;;;0.40;;
45322;SDS011;31382;50.200;8.674;2022-09-09T01:02:21;3.90;;;0.32;;
45322;SDS011;31382;50.200;8.674;2022-09-09T01:07:24;2.45;;;0.40;;
45322;SDS011;31382;50.200;8.674;2022-09-09T01:12:35;0.60;;;0.30;;
45322;SDS011;31382;50.200;8.674;2022-09-09T01:28:18;1.70;;;0.20;;
45322;SDS011;31382;50.200;8.674;2022-09-09T01:33:23;0.88;;;0.20;;
45322;SDS011;31382;50.200;8.674;2022-09-09T01:38:25;3.92;;;0.22;;
45322;SDS011;31382;50.200;8.674;2022-09-09T01:43:27;3.25;;;0.30;;
45322;SDS011;31382;50.200;8.674;2022-09-09T01:48:29;1.67;;;0.30;;
45322;SDS011;31382;50.200;8.674;2022-09-09T01:53:32;2.97;;;0.22;;
45322;SDS011;31382;50.200;8.674;2022-09-09T02:03:51;2.70;;;0.80;;
45322;SDS011;31382;50.200;8.674;2022-09-09T02:08:55;3.33;;;0.30;;
45322;SDS011;31382;50.200;8.674;2022-09-09T02:14:00;1.40;;;0.38;;
45322;SDS011;31382;50.200;8.674;2022-09-09T02:24:14;2.65;;;0.50;;
45322;SDS011;31382;50.200;8.674;2022-09-09T02:29:28;2.28;;;0.30;;
45322;SDS011;31382;50.200;8.674;2022-09-09T02:34:30;5.35;;;0.50;;
45322;SDS011;31382;50.200;8.674;2022-09-09T02:39:33;1.05;;;0.25;;
45322;SDS011;31382;50.200;8.674;2022-09-09T02:44:35;0.77;;;0.30;;
45322;SDS011;31382;50.200;8.674;2022-09-09T02:54:54;2.40;;;0.47;;
45322;SDS011;31382;50.200;8.674;2022-09-09T03:00:00;2.15;;;0.28;;
45322;SDS011;31382;50.200;8.674;2022-09-09T03:05:02;2.45;;;0.40;;
45322;SDS011;31382;50.200;8.674;2022-09-09T03:10:05;1.10;;;0.30;;
45322;SDS011;31382;50.200;8.674;2022-09-09T03:15:07;2.17;;;0.40;;
45322;SDS011;31382;50.200;8.674;2022-09-09T03:20:10;3.45;;;0.50;;
45322;SDS011;31382;50.200;8.674;2022-09-09T03:25:13;0.60;;;0.35;;
45322;SDS011;31382;50.200;8.674;2022-09-09T03:30:15;2.50;;;0.63;;
45322;SDS011;31382;50.200;8.674;2022-09-09T03:35:18;1.45;;;0.40;;
45322;SDS011;31382;50.200;8.674;2022-09-09T03:40:20;1.05;;;0.38;;
45322;SDS011;31382;50.200;8.674;2022-09-09T03:45:22;3.22;;;0.70;;
45322;SDS011;31382;50.200;8.674;2022-09-09T03:50:24;2.15;;;0.50;;
45322;SDS011;31382;50.200;8.674;2022-09-09T03:55:26;4.43;;;0.60;;
45322;SDS011;31382;50.200;8.674;2022-09-09T04:00:28;2.58;;;0.40;;
45322;SDS011;31382;50.200;8.674;2022-09-09T04:05:31;5.20;;;0.57;;
45322;SDS011;31382;50.200;8.674;2022-09-09T04:10:35;1.10;;;0.30;;
45322;SDS011;31382;50.200;8.674;2022-09-09T04:15:38;1.90;;;0.30;;
45322;SDS011;31382;50.200;8.674;2022-09-09T04:20:40;1.13;;;0.40;;
45322;SDS011;31382;50.200;8.674;2022-09-09T04:25:48;2.63;;;0.38;;
45322;SDS011;31382;50.200;8.674;2022-09-09T04:30:50;7.50;;;0.40;;
45322;SDS011;31382;50.200;8.674;2022-09-09T04:35:53;6.10;;;0.50;;
45322;SDS011;31382;50.200;8.674;2022-09-09T04:40:55;0.98;;;0.40;;
45322;SDS011;31382;50.200;8.674;2022-09-09T04:45:58;2.60;;;0.50;;
45322;SDS011;31382;50.200;8.674;2022-09-09T04:51:02;2.38;;;0.60;;
45322;SDS011;31382;50.200;8.674;2022-09-09T04:56:11;3.90;;;0.40;;
45322;SDS011;31382;50.200;8.674;2022-09-09T05:06:17;1.90;;;0.50;;
45322;SDS011;31382;50.200;8.674;2022-09-09T05:11:21;2.08;;;0.50;;
45322;SDS011;31382;50.200;8.674;2022-09-09T05:16:25;4.10;;;0.40;;
45322;SDS011;31382;50.200;8.674;2022-09-09T05:21:27;7.72;;;0.57;;
45322;SDS011;31382;50.200;8.674;2022-09-09T05:26:29;4.38;;;0.35;;
45322;SDS011;31382;50.200;8.674;2022-09-09T05:31:32;5.65;;;0.40;;
45322;SDS011;31382;50.200;8.674;2022-09-09T05:36:34;0.85;;;0.40;;
45322;SDS011;31382;50.200;8.674;2022-09-09T05:41:37;1.45;;;0.75;;
45322;SDS011;31382;50.200;8.674;2022-09-09T05:46:38;1.40;;;0.32;;
45322;SDS011;31382;50.200;8.674;2022-09-09T05:51:40;4.55;;;0.50;;
45322;SDS011;31382;50.200;8.674;2022-09-09T05:56:43;0.77;;;0.35;;
45322;SDS011;31382;50.200;8.674;2022-09-09T06:01:51;0.70;;;0.30;;
45322;SDS011;31382;50.200;8.674;2022-09-09T06:06:53;1.95;;;0.60;;
45322;SDS011;31382;50.200;8.674;2022-09-09T06:11:55;3.60;;;0.40;;
45322;SDS011;31382;50.200;8.674;2022-09-09T06:16:56;3.75;;;0.52;;
45322;SDS011;31382;50.200;8.674;2022-09-09T06:21:58;6.13;;;1.00;;
45322;SDS011;31382;50.200;8.674;2022-09-09T06:27:00;1.30;;;0.30;;
45322;SDS011;31382;50.200;8.674;2022-09-09T06:32:03;3.92;;;0.73;;
45322;SDS011;31382;50.200;8.674;2022-09-09T06:37:05;4.93;;;0.40;;
45322;SDS011;31382;50.200;8.674;2022-09-09T06:42:07;3.60;;;0.47;;
45322;SDS011;31382;50.200;8.674;2022-09-09T06:47:10;2.15;;;0.30;;
45322;SDS011;31382;50.200;8.674;2022-09-09T06:52:12;3.53;;;0.30;;
45322;SDS011;31382;50.200;8.674;2022-09-09T06:57:14;3.22;;;0.40;;
45322;SDS011;31382;50.200;8.674;2022-09-09T07:02:35;1.73;;;0.38;;
45322;SDS011;31382;50.200;8.674;2022-09-09T07:07:40;4.53;;;0.20;;
45322;SDS011;31382;50.200;8.674;2022-09-09T07:12:42;3.03;;;0.20;;
45322;SDS011;31382;50.200;8.674;2022-09-09T07:17:45;0.85;;;0.20;;
45322;SDS011;31382;50.200;8.674;2022-09-09T07:22:47;4.00;;;0.30;;
45322;SDS011;31382;50.200;8.674;2022-09-09T07:27:49;1.95;;;0.30;;
45322;SDS011;31382;50.200;8.674;2022-09-09T07:32:51;2.58;;;0.45;;
45322;SDS011;31382;50.200;8.674;2022-09-09T07:37:53;8.43;;;0.70;;
45322;SDS011;31382;50.200;8.674;2022-09-09T07:42:55;2.35;;;0.30;;
45322;SDS011;31382;50.200;8.674;2022-09-09T07:47:58;8.93;;;0.45;;
45322;SDS011;31382;50.200;8.674;2022-09-09T07:53:00;2.55;;;0.20;;
45322;SDS011;31382;50.200;8.674;2022-09-09T07:58:03;1.58;;;0.25;;
45322;SDS011;31382;50.200;8.674;2022-09-09T08:03:05;3.03;;;0.22;;
45322;SDS011;31382;50.200;8.674;2022-09-09T08:08:07;4.95;;;0.30;;
45322;SDS011;31382;50.200;8.674;2022-09-09T08:13:10;5.45;;;0.40;;
45322;SDS011;31382;50.200;8.674;2022-09-09T08:18:18;2.83;;;0.30;;
45322;SDS011;31382;50.200;8.674;2022-09-09T08:23:20;1.25;;;0.32;;
45322;SDS011;31382;50.200;8.674;2022-09-09T08:28:22;1.85;;;0.22;;
45322;SDS011;31382;50.200;8.674;2022-09-09T08:33:24;2.83;;;0.30;;
45322;SDS011;31382;50.200;8.674;2022-09-09T08:38:26;3.10;;;0.30;;
45322;SDS011;31382;50.200;8.674;2022-09-09T08:43:29;3.67;;;0.30;;
45322;SDS011;31382;50.200;8.674;2022-09-09T08:53:46;2.22;;;0.40;;
45322;SDS011;31382;50.200;8.674;2022-09-09T08:58:55;1.13;;;0.30;;
45322;SDS011;31382;50.200;8.674;2022-09-09T09:04:00;6.05;;;0.50;;
45322;SDS011;31382;50.200;8.674;2022-09-09T09:09:17;1.73;;;0.30;;
45322;SDS011;31382;50.200;8.674;2022-09-09T09:14:24;4.47;;;0.50;;
45322;SDS011;31382;50.200;8.674;2022-09-09T09:19:27;7.05;;;0.40;;
45322;SDS011;31382;50.200;8.674;2022-09-09T09:29:37;4.38;;;0.50;;
45322;SDS011;31382;50.200;8.674;2022-09-09T09:35:00;2.33;;;0.40;;
45322;SDS011;31382;50.200;8.674;2022-09-09T09:40:12;4.90;;;0.45;;
45322;SDS011;31382;50.200;8.674;2022-09-09T09:45:26;3.40;;;0.50;;
45322;SDS011;31382;50.200;8.674;2022-09-09T09:50:29;4.38;;;0.47;;
45322;SDS011;31382;50.200;8.674;2022-09-09T09:55:33;3.13;;;0.30;;
45322;SDS011;31382;50.200;8.674;2022-09-09T10:00:36;4.70;;;0.20;;
45322;SDS011;31382;50.200;8.674;2022-09-09T10:05:50;2.45;;;0.30;;
45322;SDS011;31382;50.200;8.674;2022-09-09T10:37:00;2.97;;;0.80;;
45322;SDS011;31382;50.200;8.674;2022-09-09T10:42:16;3.25;;;0.40;;
45322;SDS011;31382;50.200;8.674;2022-09-09T10:58:47;4.20;;;0.50;;
45322;SDS011;31382;50.200;8.674;2022-09-09T11:04:03;2.60;;;0.68;;
45322;SDS011;31382;50.200;8.674;2022-09-09T11:09:08;4.70;;;0.98;;
45322;SDS011;31382;50.200;8.674;2022-09-09T11:24:23;3.10;;;0.70;;
45322;SDS011;31382;50.200;8.674;2022-09-09T11:34:54;3.30;;;0.68;;
45322;SDS011;31382;50.200;8.674;2022-09-09T11:50:33;0.73;;;0.25;;
45322;SDS011;31382;50.200;8.674;2022-09-09T11:55:37;1.50;;;0.20;;
45322;SDS011;31382;50.200;8.674;2022-09-09T12:00:43;0.88;;;0.20;;
45322;SDS011;31382;50.200;8.674;2022-09-09T12:05:46;4.18;;;0.30;;
45322;SDS011;31382;50.200;8.674;2022-09-09T12:10:56;3.33;;;0.30;;
45322;SDS011;31382;50.200;8.674;2022-09-09T12:16:00;1.40;;;0.20;;
45322;SDS011;31382;50.200;8.674;2022-09-09T12:21:07;3.22;;;0.20;;
45322;SDS011;31382;50.200;8.674;2022-09-09T12:31:39;3.55;;;0.20;;
45322;SDS011;31382;50.200;8.674;2022-09-09T12:36:47;2.10;;;0.17;;
45322;SDS011;31382;50.200;8.674;2022-09-09T12:41:54;2.40;;;0.22;;
45322;SDS011;31382;50.200;8.674;2022-09-09T12:47:00;0.77;;;0.20;;
45322;SDS011;31382;50.200;8.674;2022-09-09T12:52:04;1.33;;;0.20;;
45322;SDS011;31382;50.200;8.674;2022-09-09T12:57:10;3.55;;;0.35;;
45322;SDS011;31382;50.200;8.674;2022-09-09T13:02:22;0.30;;;0.10;;
45322;SDS011;31382;50.200;8.674;2022-09-09T13:07:25;2.72;;;0.10;;
45322;SDS011;31382;50.200;8.674;2022-09-09T13:12:27;1.90;;;0.10;;
45322;SDS011;31382;50.200;8.674;2022-09-09T13:17:29;0.75;;;0.10;;
45322;SDS011;31382;50.200;8.674;2022-09-09T13:22:35;0.77;;;0.10;;
45322;SDS011;31382;50.200;8.674;2022-09-09T13:27:39;3.13;;;0.30;;
45322;SDS011;31382;50.200;8.674;2022-09-09T13:32:42;3.58;;;0.22;;
45322;SDS011;31382;50.200;8.674;2022-09-09T13:37:43;2.45;;;0.40;;
45322;SDS011;31382;50.200;8.674;2022-09-09T13:42:45;0.20;;;0.00;;
45322;SDS011;31382;50.200;8.674;2022-09-09T13:47:47;2.33;;;0.10;;
45322;SDS011;31382;50.200;8.674;2022-09-09T13:52:54;3.03;;;0.10;;
45322;SDS011;31382;50.200;8.674;2022-09-09T13:57:58;1.98;;;0.10;;
45322;SDS011;31382;50.200;8.674;2022-09-09T14:03:01;0.75;;;0.10;;
45322;SDS011;31382;50.200;8.674;2022-09-09T14:08:04;2.58;;;0.10;;
45322;SDS011;31382;50.200;8.674;2022-09-09T14:13:07;1.10;;;0.00;;
45322;SDS011;31382;50.200;8.674;2022-09-09T14:18:11;1.38;;;0.10;;
45322;SDS011;31382;50.200;8.674;2022-09-09T14:23:13;0.10;;;0.00;;
45322;SDS011;31382;50.200;8.674;2022-09-09T14:28:16;1.50;;;0.10;;
45322;SDS011;31382;50.200;8.674;2022-09-09T14:33:26;2.35;;;0.03;;
45322;SDS011;31382;50.200;8.674;2022-09-09T14:38:30;1.65;;;0.08;;
45322;SDS011;31382;50.200;8.674;2022-09-09T14:43:34;0.50;;;0.10;;
45322;SDS011;31382;50.200;8.674;2022-09-09T14:48:36;1.52;;;0.10;;
45322;SDS011;31382;50.200;8.674;2022-09-09T14:53:41;1.40;;;0.10;;
45322;SDS011;31382;50.200;8.674;2022-09-09T14:58:44;1.88;;;0.10;;
45322;SDS011;31382;50.200;8.674;2022-09-09T15:03:54;0.70;;;0.20;;
45322;SDS011;31382;50.200;8.674;2022-09-09T15:08:57;0.52;;;0.10;;
45322;SDS011;31382;50.200;8.674;2022-09-09T15:13:59;0.32;;;0.10;;
45322;SDS011;31382;50.200;8.674;2022-09-09T15:19:01;0.28;;;0.10;;
45322;SDS011;31382;50.200;8.674;2022-09-09T15:24:04;2.22;;;0.10;;
45322;SDS011;31382;50.200;8.674;2022-09-09T15:29:06;0.90;;;0.20;;
45322;SDS011;31382;50.200;8.674;2022-09-09T15:34:09;2.72;;;0.15;;
45322;SDS011;31382;50.200;8.674;2022-09-09T15:39:12;1.65;;;0.10;;
45322;SDS011;31382;50.200;8.674;2022-09-09T15:44:16;1.85;;;0.10;;
45322;SDS011;31382;50.200;8.674;2022-09-09T15:49:20;0.65;;;0.10;;
45322;SDS011;31382;50.200;8.674;2022-09-09T15:54:24;0.68;;;0.10;;
45322;SDS011;31382;50.200;8.674;2022-09-09T15:59:27;2.00;;;0.10;;
45322;SDS011;31382;50.200;8.674;2022-09-09T16:04:29;1.50;;;0.20;;
45322;SDS011;31382;50.200;8.674;2022-09-09T16:09:32;2.15;;;0.20;;
45322;SDS011;31382;50.200;8.674;2022-09-09T16:14:34;1.20;;;0.00;;
45322;SDS011;31382;50.200;8.674;2022-09-09T16:19:36;0.80;;;0.10;;
45322;SDS011;31382;50.200;8.674;2022-09-09T16:24:39;2.45;;;0.20;;
45322;SDS011;31382;50.200;8.674;2022-09-09T16:29:41;1.08;;;0.10;;
45322;SDS011;31382;50.200;8.674;2022-09-09T16:34:43;0.95;;;0.10;;
45322;SDS011;31382;50.200;8.674;2022-09-09T16:39:45;0.38;;;0.10;;
45322;SDS011;31382;50.200;8.674;2022-09-09T16:44:48;4.72;;;0.43;;
45322;SDS011;31382;50.200;8.674;2022-09-09T16:49:51;5.25;;;0.20;;
45322;SDS011;31382;50.200;8.674;2022-09-09T16:54:53;4.45;;;0.20;;
45322;SDS011;31382;50.200;8.674;2022-09-09T16:59:55;1.75;;;0.10;;
45322;SDS011;31382;50.200;8.674;2022-09-09T17:05:00;1.05;;;0.30;;
45322;SDS011;31382;50.200;8.674;2022-09-09T17:10:02;0.60;;;0.20;;
45322;SDS011;31382;50.200;8.674;2022-09-09T17:15:04;2.63;;;0.15;;
45322;SDS011;31382;50.200;8.674;2022-09-09T17:20:06;2.70;;;0.22;;
45322;SDS011;31382;50.200;8.674;2022-09-09T17:25:10;0.22;;;0.05;;
45322;SDS011;31382;50.200;8.674;2022-09-09T17:30:12;1.00;;;0.20;;
45322;SDS011;31382;50.200;8.674;2022-09-09T17:35:14;1.30;;;0.05;;
45322;SDS011;31382;50.200;8.674;2022-09-09T17:40:17;4.45;;;0.70;;
45322;SDS011;31382;50.200;8.674;2022-09-09T17:45:19;0.65;;;0.20;;
45322;SDS011;31382;50.200;8.674;2022-09-09T17:50:22;0.15;;;0.10;;
45322;SDS011;31382;50.200;8.674;2022-09-09T17:55:24;2.33;;;0.10;;
45322;SDS011;31382;50.200;8.674;2022-09-09T18:00:26;0.68;;;0.30;;
45322;SDS011;31382;50.200;8.674;2022-09-09T18:05:31;0.32;;;0.20;;
45322;SDS011;31382;50.200;8.674;2022-09-09T18:10:33;1.65;;;0.20;;
45322;SDS011;31382;50.200;8.674;2022-09-09T18:15:36;0.82;;;0.30;;
45322;SDS011;31382;50.200;8.674;2022-09-09T18:20:59;0.93;;;0.20;;
45322;SDS011;31382;50.200;8.674;2022-09-09T18:26:08;2.03;;;0.10;;
45322;SDS011;31382;50.200;8.674;2022-09-09T18:31:12;2.70;;;0.20;;
45322;SDS011;31382;50.200;8.674;2022-09-09T18:36:19;1.50;;;0.20;;
45322;SDS011;31382;50.200;8.674;2022-09-09T18:41:23;0.47;;;0.05;;
45322;SDS011;31382;50.200;8.674;2022-09-09T18:46:26;0.90;;;0.10;;
45322;SDS011;31382;50.200;8.674;2022-09-09T18:51:28;3.42;;;0.20;;
45322;SDS011;31382;50.200;8.674;2022-09-09T18:56:30;2.70;;;0.15;;
45322;SDS011;31382;50.200;8.674;2022-09-09T19:01:33;1.52;;;0.15;;
45322;SDS011;31382;50.200;8.674;2022-09-09T19:06:39;1.83;;;0.20;;
45322;SDS011;31382;50.200;8.674;2022-09-09T19:11:42;1.15;;;0.20;;
45322;SDS011;31382;50.200;8.674;2022-09-09T19:16:45;2.53;;;0.30;;
45322;SDS011;31382;50.200;8.674;2022-09-09T19:21:48;1.75;;;0.30;;
45322;SDS011;31382;50.200;8.674;2022-09-09T19:26:52;1.48;;;0.20;;
45322;SDS011;31382;50.200;8.674;2022-09-09T19:31:55;1.75;;;0.25;;
45322;SDS011;31382;50.200;8.674;2022-09-09T19:37:19;0.52;;;0.10;;
45322;SDS011;31382;50.200;8.674;2022-09-09T19:42:22;1.27;;;0.10;;
45322;SDS011;31382;50.200;8.674;2022-09-09T19:47:25;2.50;;;0.08;;
45322;SDS011;31382;50.200;8.674;2022-09-09T19:52:27;0.73;;;0.10;;
45322;SDS011;31382;50.200;8.674;2022-09-09T19:57:29;0.47;;;0.10;;
45322;SDS011;31382;50.200;8.674;2022-09-09T20:02:31;0.60;;;0.10;;
45322;SDS011;31382;50.200;8.674;2022-09-09T20:07:33;1.98;;;0.20;;
45322;SDS011;31382;50.200;8.674;2022-09-09T20:14:54;1.00;;;0.20;;
45322;SDS011;31382;50.200;8.674;2022-09-09T20:19:56;0.90;;;0.10;;
45322;SDS011;31382;50.200;8.674;2022-09-09T20:24:57;1.55;;;0.20;;
45322;SDS011;31382;50.200;8.674;2022-09-09T20:29:59;3.78;;;0.20;;
45322;SDS011;31382;50.200;8.674;2022-09-09T20:35:01;0.55;;;0.20;;
45322;SDS011;31382;50.200;8.674;2022-09-09T20:40:03;1.48;;;0.30;;
45322;SDS011;31382;50.200;8.674;2022-09-09T20:45:05;1.17;;;0.50;;
45322;SDS011;31382;50.200;8.674;2022-09-09T20:50:07;0.47;;;0.20;;
45322;SDS011;31382;50.200;8.674;2022-09-09T20:55:09;1.40;;;0.43;;
45322;SDS011;31382;50.200;8.674;2022-09-09T21:00:11;2.72;;;0.20;;
45322;SDS011;31382;50.200;8.674;2022-09-09T21:05:13;1.20;;;0.20;;
45322;SDS011;31382;50.200;8.674;2022-09-09T21:10:15;0.50;;;0.20;;
45322;SDS011;31382;50.200;8.674;2022-09-09T21:15:17;0.68;;;0.38;;
45322;SDS011;31382;50.200;8.674;2022-09-09T21:20:19;0.47;;;0.20;;
45322;SDS011;31382;50.200;8.674;2022-09-09T21:25:21;1.08;;;0.20;;
45322;SDS011;31382;50.200;8.674;2022-09-09T21:30:22;1.50;;;0.10;;
45322;SDS011;31382;50.200;8.674;2022-09-09T21:35:38;0.85;;;0.20;;
45322;SDS011;31382;50.200;8.674;2022-09-09T21:40:41;1.67;;;0.13;;
45322;SDS011;31382;50.200;8.674;2022-09-09T21:45:43;3.58;;;0.52;;
45322;SDS011;31382;50.200;8.674;2022-09-09T21:50:45;1.27;;;0.20;;
45322;SDS011;31382;50.200;8.674;2022-09-09T21:55:48;1.75;;;0.20;;
45322;SDS011;31382;50.200;8.674;2022-09-09T22:00:49;0.40;;;0.00;;
45322;SDS011;31382;50.200;8.674;2022-09-09T22:05:51;1.77;;;0.10;;
45322;SDS011;31382;50.200;8.674;2022-09-09T22:10:54;0.63;;;0.20;;
45322;SDS011;31382;50.200;8.674;2022-09-09T22:15:55;0.88;;;0.30;;
45322;SDS011;31382;50.200;8.674;2022-09-09T22:20:58;1.10;;;0.20;;
45322;SDS011;31382;50.200;8.674;2022-09-09T22:26:04;3.20;;;0.50;;
45322;SDS011;31382;50.200;8.674;2022-09-09T22:31:07;3.03;;;0.40;;
45322;SDS011;31382;50.200;8.674;2022-09-09T22:36:08;6.05;;;0.68;;
45322;SDS011;31382;50.200;8.674;2022-09-09T22:41:10;1.77;;;0.93;;
45322;SDS011;31382;50.200;8.674;2022-09-09T22:46:13;2.05;;;0.90;;
45322;SDS011;31382;50.200;8.674;2022-09-09T22:51:15;3.47;;;1.15;;
45322;SDS011;31382;50.200;8.674;2022-09-09T22:56:17;5.10;;;1.00;;
45322;SDS011;31382;50.200;8.674;2022-09-09T23:01:20;2.28;;;1.10;;
45322;SDS011;31382;50.200;8.674;2022-09-09T23:06:23;2.08;;;1.00;;
45322;SDS011;31382;50.200;8.674;2022-09-09T23:11:27;3.00;;;1.17;;
45322;SDS011;31382;50.200;8.674;2022-09-09T23:16:35;2.70;;;1.05;;
45322;SDS011;31382;50.200;8.674;2022-09-09T23:21:39;2.53;;;0.70;;
45322;SDS011;31382;50.200;8.674;2022-09-09T23:26:42;6.03;;;0.73;;
45322;SDS011;31382;50.200;8.674;2022-09-09T23:31:45;2.95;;;0.50;;
45322;SDS011;31382;50.200;8.674;2022-09-09T23:36:47;2.85;;;0.85;;
45322;SDS011;31382;50.200;8.674;2022-09-09T23:41:49;2.10;;;0.77;;
45322;SDS011;31382;50.200;8.674;2022-09-09T23:46:51;2.55;;;0.70;;
45322;SDS011;31382;50.200;8.674;2022-09-09T23:51:52;2.25;;;0.52;;
45322;SDS011;31382;50.200;8.674;2022-09-09T23:56:54;1.83;;;0.70;;
